sensor_id;sensor_type;location;lat;lon;timestamp;pressure;altitude;pressure_sealevel;temperature;humidity
64460;BME280;50828;53.756;21.140;2023-04-06T00:03:43;100540.64;;;2.56;60.74
64460;BME280;50828;53.756;21.140;2023-04-06T00:08:52;100541.17;;;2.56;60.50
64460;BME280;50828;53.756;21.140;2023-04-06T00:14:01;100533.52;;;2.54;60.67
64460;BME280;50828;53.756;21.140;2023-04-06T00:19:08;100534.56;;;2.54;60.86
64460;BME280;50828;53.756;21.140;2023-04-06T00:24:17;100532.30;;;2.54;60.76
64460;BME280;50828;53.756;21.140;2023-04-06T00:29:25;100528.66;;;2.53;60.89
64460;BME280;50828;53.756;21.140;2023-04-06T00:34:32;100530.56;;;2.54;61.00
64460;BME280;50828;53.756;21.140;2023-04-06T00:39:40;100524.82;;;2.52;60.92
64460;BME280;50828;53.756;21.140;2023-04-06T00:44:47;100529.35;;;2.51;61.10
64460;BME280;50828;53.756;21.140;2023-04-06T00:49:56;100528.83;;;2.50;60.93
64460;BME280;50828;53.756;21.140;2023-04-06T00:55:05;100525.52;;;2.48;60.73
64460;BME280;50828;53.756;21.140;2023-04-06T01:00:18;100523.09;;;2.46;60.94
64460;BME280;50828;53.756;21.140;2023-04-06T01:05:28;100516.83;;;2.44;60.98
64460;BME280;50828;53.756;21.140;2023-04-06T01:10:36;100518.57;;;2.41;60.84
64460;BME280;50828;53.756;21.140;2023-04-06T01:16:00;100505.02;;;2.31;61.03
64460;BME280;50828;53.756;21.140;2023-04-06T01:21:23;100516.32;;;2.35;61.00
64460;BME280;50828;53.756;21.140;2023-04-06T01:26:56;100511.27;;;2.30;61.02
64460;BME280;50828;53.756;21.140;2023-04-06T01:32:07;100507.63;;;2.25;60.89
64460;BME280;50828;53.756;21.140;2023-04-06T01:37:22;100508.31;;;2.20;60.95
64460;BME280;50828;53.756;21.140;2023-04-06T01:42:32;100503.80;;;2.14;60.99
64460;BME280;50828;53.756;21.140;2023-04-06T01:47:39;100502.05;;;2.08;61.09
64460;BME280;50828;53.756;21.140;2023-04-06T01:52:49;100500.13;;;2.00;61.08
64460;BME280;50828;53.756;21.140;2023-04-06T01:57:58;100503.60;;;1.93;61.17
64460;BME280;50828;53.756;21.140;2023-04-06T02:03:12;100499.42;;;1.85;61.33
64460;BME280;50828;53.756;21.140;2023-04-06T02:08:21;100492.46;;;1.78;61.34
64460;BME280;50828;53.756;21.140;2023-04-06T02:13:30;100489.51;;;1.73;61.42
64460;BME280;50828;53.756;21.140;2023-04-06T02:18:38;100487.59;;;1.67;61.53
64460;BME280;50828;53.756;21.140;2023-04-06T02:23:47;100485.48;;;1.61;61.55
64460;BME280;50828;53.756;21.140;2023-04-06T02:28:56;100485.98;;;1.55;61.61
64460;BME280;50828;53.756;21.140;2023-04-06T02:34:05;100486.48;;;1.49;61.79
64460;BME280;50828;53.756;21.140;2023-04-06T02:39:13;100488.73;;;1.43;61.76
64460;BME280;50828;53.756;21.140;2023-04-06T02:44:21;100484.55;;;1.37;61.84
64460;BME280;50828;53.756;21.140;2023-04-06T02:49:30;100486.80;;;1.32;62.22
64460;BME280;50828;53.756;21.140;2023-04-06T02:54:37;100490.59;;;1.29;62.14
64460;BME280;50828;53.756;21.140;2023-04-06T02:59:45;100489.20;;;1.25;62.26
64460;BME280;50828;53.756;21.140;2023-04-06T03:04:57;100490.05;;;1.22;62.18
64460;BME280;50828;53.756;21.140;2023-04-06T03:10:12;100491.94;;;1.19;62.40
64460;BME280;50828;53.756;21.140;2023-04-06T03:15:23;100496.80;;;1.16;62.64
64460;BME280;50828;53.756;21.140;2023-04-06T03:20:37;100491.73;;;1.13;62.61
64460;BME280;50828;53.756;21.140;2023-04-06T03:25:45;100489.48;;;1.10;62.69
64460;BME280;50828;53.756;21.140;2023-04-06T03:30:56;100495.72;;;1.07;62.72
64460;BME280;50828;53.756;21.140;2023-04-06T03:36:26;100501.07;;;1.03;62.74
64460;BME280;50828;53.756;21.140;2023-04-06T03:41:34;100502.27;;;0.99;62.81
64460;BME280;50828;53.756;21.140;2023-04-06T03:46:49;100500.68;;;0.96;62.91
64460;BME280;50828;53.756;21.140;2023-04-06T03:52:00;100502.92;;;0.93;63.00
64460;BME280;50828;53.756;21.140;2023-04-06T03:57:07;100505.34;;;0.91;63.16
64460;BME280;50828;53.756;21.140;2023-04-06T04:02:15;100506.55;;;0.89;63.13
64460;BME280;50828;53.756;21.140;2023-04-06T04:07:22;100507.58;;;0.89;63.31
64460;BME280;50828;53.756;21.140;2023-04-06T04:12:30;100506.54;;;0.88;63.27
64460;BME280;50828;53.756;21.140;2023-04-06T04:17:38;100506.38;;;0.89;63.43
64460;BME280;50828;53.756;21.140;2023-04-06T04:22:49;100508.11;;;0.90;63.56
64460;BME280;50828;53.756;21.140;2023-04-06T04:27:57;100510.89;;;0.92;63.51
64460;BME280;50828;53.756;21.140;2023-04-06T04:33:06;100511.60;;;0.95;63.55
64460;BME280;50828;53.756;21.140;2023-04-06T04:38:13;100507.29;;;0.97;63.71
64460;BME280;50828;53.756;21.140;2023-04-06T04:43:22;100502.11;;;1.02;63.79
64460;BME280;50828;53.756;21.140;2023-04-06T04:48:30;100498.13;;;1.08;63.83
64460;BME280;50828;53.756;21.140;2023-04-06T04:53:40;100490.02;;;1.15;63.97
64460;BME280;50828;53.756;21.140;2023-04-06T04:58:56;100491.09;;;1.23;64.08
64460;BME280;50828;53.756;21.140;2023-04-06T05:04:04;100487.48;;;1.32;63.97
64460;BME280;50828;53.756;21.140;2023-04-06T05:09:13;100488.90;;;1.41;64.01
64460;BME280;50828;53.756;21.140;2023-04-06T05:14:22;100489.09;;;1.50;64.05
64460;BME280;50828;53.756;21.140;2023-04-06T05:19:29;100488.42;;;1.59;64.03
64460;BME280;50828;53.756;21.140;2023-04-06T05:24:39;100489.48;;;1.69;64.14
64460;BME280;50828;53.756;21.140;2023-04-06T05:29:47;100490.39;;;1.83;64.12
64460;BME280;50828;53.756;21.140;2023-04-06T05:34:56;100489.38;;;2.00;63.91
64460;BME280;50828;53.756;21.140;2023-04-06T05:40:05;100486.77;;;2.20;63.93
64460;BME280;50828;53.756;21.140;2023-04-06T05:45:14;100493.71;;;2.41;63.85
64460;BME280;50828;53.756;21.140;2023-04-06T05:50:28;100494.20;;;2.63;63.70
64460;BME280;50828;53.756;21.140;2023-04-06T05:55:38;100494.52;;;2.83;63.68
64460;BME280;50828;53.756;21.140;2023-04-06T06:00:58;100492.74;;;2.96;63.43
64460;BME280;50828;53.756;21.140;2023-04-06T06:06:13;100485.77;;;3.02;63.27
64460;BME280;50828;53.756;21.140;2023-04-06T06:11:45;100486.44;;;3.07;63.03
64460;BME280;50828;53.756;21.140;2023-04-06T06:16:53;100482.61;;;3.08;62.96
64460;BME280;50828;53.756;21.140;2023-04-06T06:22:01;100477.73;;;3.09;62.86
64460;BME280;50828;53.756;21.140;2023-04-06T06:27:12;100473.02;;;3.10;62.63
64460;BME280;50828;53.756;21.140;2023-04-06T06:32:20;100470.23;;;3.12;62.57
64460;BME280;50828;53.756;21.140;2023-04-06T06:37:29;100475.10;;;3.15;62.60
64460;BME280;50828;53.756;21.140;2023-04-06T06:42:38;100475.60;;;3.18;62.48
64460;BME280;50828;53.756;21.140;2023-04-06T06:47:54;100472.64;;;3.21;62.42
64460;BME280;50828;53.756;21.140;2023-04-06T06:53:01;100465.32;;;3.23;62.49
64460;BME280;50828;53.756;21.140;2023-04-06T06:58:09;100467.39;;;3.26;62.25
64460;BME280;50828;53.756;21.140;2023-04-06T07:03:16;100474.35;;;3.29;62.11
64460;BME280;50828;53.756;21.140;2023-04-06T07:08:24;100465.11;;;3.32;62.08
64460;BME280;50828;53.756;21.140;2023-04-06T07:13:32;100463.31;;;3.39;62.10
64460;BME280;50828;53.756;21.140;2023-04-06T07:18:40;100470.60;;;3.46;61.80
64460;BME280;50828;53.756;21.140;2023-04-06T07:23:48;100475.79;;;3.52;61.86
64460;BME280;50828;53.756;21.140;2023-04-06T07:28:56;100471.06;;;3.58;61.53
64460;BME280;50828;53.756;21.140;2023-04-06T07:34:05;100466.66;;;3.64;61.50
64460;BME280;50828;53.756;21.140;2023-04-06T07:39:13;100461.77;;;3.68;61.45
64460;BME280;50828;53.756;21.140;2023-04-06T07:44:20;100467.12;;;3.76;60.96
64460;BME280;50828;53.756;21.140;2023-04-06T07:49:29;100469.53;;;3.80;60.79
64460;BME280;50828;53.756;21.140;2023-04-06T07:54:40;100474.92;;;3.81;60.56
64460;BME280;50828;53.756;21.140;2023-04-06T07:59:47;100474.24;;;3.78;60.05
64460;BME280;50828;53.756;21.140;2023-04-06T08:04:55;100472.36;;;3.72;59.84
64460;BME280;50828;53.756;21.140;2023-04-06T08:10:03;100474.32;;;3.66;59.82
64460;BME280;50828;53.756;21.140;2023-04-06T08:15:12;100469.30;;;3.62;60.05
64460;BME280;50828;53.756;21.140;2023-04-06T08:20:19;100470.16;;;3.64;59.99
64460;BME280;50828;53.756;21.140;2023-04-06T08:25:27;100466.83;;;3.66;60.07
64460;BME280;50828;53.756;21.140;2023-04-06T08:30:34;100464.23;;;3.65;60.12
64460;BME280;50828;53.756;21.140;2023-04-06T08:35:42;100462.48;;;3.65;60.17
64460;BME280;50828;53.756;21.140;2023-04-06T08:40:50;100469.61;;;3.66;60.25
64460;BME280;50828;53.756;21.140;2023-04-06T08:45:58;100470.16;;;3.63;60.48
64460;BME280;50828;53.756;21.140;2023-04-06T08:51:07;100473.15;;;3.58;60.41
64460;BME280;50828;53.756;21.140;2023-04-06T08:56:14;100473.87;;;3.52;60.40
64460;BME280;50828;53.756;21.140;2023-04-06T09:01:25;100470.78;;;3.45;60.56
64460;BME280;50828;53.756;21.140;2023-04-06T09:06:33;100459.31;;;3.38;60.77
64460;BME280;50828;53.756;21.140;2023-04-06T09:11:49;100442.65;;;3.33;60.99
64460;BME280;50828;53.756;21.140;2023-04-06T09:16:57;100438.65;;;3.28;61.23
64460;BME280;50828;53.756;21.140;2023-04-06T09:22:06;100440.08;;;3.25;61.42
64460;BME280;50828;53.756;21.140;2023-04-06T09:27:14;100439.21;;;3.22;61.46
64460;BME280;50828;53.756;21.140;2023-04-06T09:32:22;100426.70;;;3.15;61.37
64460;BME280;50828;53.756;21.140;2023-04-06T09:37:29;100434.37;;;3.15;61.74
64460;BME280;50828;53.756;21.140;2023-04-06T09:42:37;100434.55;;;3.16;61.85
64460;BME280;50828;53.756;21.140;2023-04-06T09:47:46;100432.10;;;3.18;61.86
64460;BME280;50828;53.756;21.140;2023-04-06T09:52:56;100427.20;;;3.19;61.92
64460;BME280;50828;53.756;21.140;2023-04-06T09:58:06;100421.27;;;3.22;61.82
64460;BME280;50828;53.756;21.140;2023-04-06T10:03:30;100413.61;;;3.24;61.87
64460;BME280;50828;53.756;21.140;2023-04-06T10:08:45;100409.41;;;3.30;61.80
64460;BME280;50828;53.756;21.140;2023-04-06T10:13:53;100408.65;;;3.38;61.78
64460;BME280;50828;53.756;21.140;2023-04-06T10:19:06;100413.65;;;3.47;61.87
64460;BME280;50828;53.756;21.140;2023-04-06T10:24:17;100407.32;;;3.57;61.77
64460;BME280;50828;53.756;21.140;2023-04-06T10:29:24;100392.30;;;3.63;61.50
64460;BME280;50828;53.756;21.140;2023-04-06T10:34:37;100390.85;;;3.70;61.33
64460;BME280;50828;53.756;21.140;2023-04-06T10:39:53;100389.77;;;3.76;61.22
64460;BME280;50828;53.756;21.140;2023-04-06T10:45:07;100381.54;;;3.81;61.02
64460;BME280;50828;53.756;21.140;2023-04-06T10:50:26;100371.77;;;3.82;60.93
64460;BME280;50828;53.756;21.140;2023-04-06T10:55:40;100364.43;;;3.83;60.88
64460;BME280;50828;53.756;21.140;2023-04-06T11:00:48;100363.71;;;3.88;60.85
64460;BME280;50828;53.756;21.140;2023-04-06T11:05:56;100357.75;;;3.91;60.93
64460;BME280;50828;53.756;21.140;2023-04-06T11:11:14;100349.35;;;3.94;60.91
64460;BME280;50828;53.756;21.140;2023-04-06T11:16:25;100354.30;;;4.05;60.63
64460;BME280;50828;53.756;21.140;2023-04-06T11:21:37;100344.13;;;4.12;60.56
64460;BME280;50828;53.756;21.140;2023-04-06T11:26:44;100338.99;;;4.20;60.54
64460;BME280;50828;53.756;21.140;2023-04-06T11:31:58;100338.21;;;4.29;60.33
64460;BME280;50828;53.756;21.140;2023-04-06T11:37:08;100334.27;;;4.37;60.36
64460;BME280;50828;53.756;21.140;2023-04-06T11:42:23;100325.80;;;4.47;60.08
64460;BME280;50828;53.756;21.140;2023-04-06T11:47:33;100330.09;;;4.53;59.99
64460;BME280;50828;53.756;21.140;2023-04-06T11:52:42;100332.27;;;4.59;59.62
64460;BME280;50828;53.756;21.140;2023-04-06T11:57:50;100327.02;;;4.62;59.66
64460;BME280;50828;53.756;21.140;2023-04-06T12:02:57;100317.04;;;4.65;59.53
64460;BME280;50828;53.756;21.140;2023-04-06T12:08:05;100299.46;;;4.62;59.35
64460;BME280;50828;53.756;21.140;2023-04-06T12:13:12;100301.61;;;4.70;59.31
64460;BME280;50828;53.756;21.140;2023-04-06T12:18:20;100299.48;;;4.73;59.14
64460;BME280;50828;53.756;21.140;2023-04-06T12:23:27;100283.90;;;4.77;59.13
64460;BME280;50828;53.756;21.140;2023-04-06T12:28:35;100266.94;;;4.80;58.98
64460;BME280;50828;53.756;21.140;2023-04-06T12:33:43;100274.35;;;4.86;59.09
64460;BME280;50828;53.756;21.140;2023-04-06T12:38:52;100244.41;;;4.93;58.94
64460;BME280;50828;53.756;21.140;2023-04-06T12:43:59;100254.05;;;5.01;58.90
64460;BME280;50828;53.756;21.140;2023-04-06T12:49:07;100264.42;;;5.08;59.01
64460;BME280;50828;53.756;21.140;2023-04-06T12:54:17;100256.30;;;5.14;58.82
64460;BME280;50828;53.756;21.140;2023-04-06T12:59:25;100246.08;;;5.19;58.55
64460;BME280;50828;53.756;21.140;2023-04-06T13:04:34;100245.48;;;5.24;58.61
64460;BME280;50828;53.756;21.140;2023-04-06T13:09:41;100236.17;;;5.28;58.66
64460;BME280;50828;53.756;21.140;2023-04-06T13:14:49;100235.20;;;5.34;58.54
64460;BME280;50828;53.756;21.140;2023-04-06T13:19:58;100229.88;;;5.40;58.48
64460;BME280;50828;53.756;21.140;2023-04-06T13:25:06;100231.05;;;5.43;58.43
64460;BME280;50828;53.756;21.140;2023-04-06T13:30:15;100231.52;;;5.44;58.34
64460;BME280;50828;53.756;21.140;2023-04-06T13:35:23;100236.52;;;5.48;58.19
64460;BME280;50828;53.756;21.140;2023-04-06T13:40:30;100223.80;;;5.47;58.10
64460;BME280;50828;53.756;21.140;2023-04-06T13:45:38;100222.67;;;5.52;58.34
64460;BME280;50828;53.756;21.140;2023-04-06T13:50:45;100222.83;;;5.53;58.18
64460;BME280;50828;53.756;21.140;2023-04-06T13:55:56;100220.70;;;5.55;58.18
64460;BME280;50828;53.756;21.140;2023-04-06T14:01:06;100222.92;;;5.57;58.11
64460;BME280;50828;53.756;21.140;2023-04-06T14:06:16;100215.20;;;5.59;58.09
64460;BME280;50828;53.756;21.140;2023-04-06T14:11:26;100209.59;;;5.60;58.07
64460;BME280;50828;53.756;21.140;2023-04-06T14:16:33;100203.80;;;5.62;58.28
64460;BME280;50828;53.756;21.140;2023-04-06T14:21:40;100199.56;;;5.64;58.30
64460;BME280;50828;53.756;21.140;2023-04-06T14:26:49;100199.19;;;5.65;58.22
64460;BME280;50828;53.756;21.140;2023-04-06T14:31:56;100189.55;;;5.67;58.25
64460;BME280;50828;53.756;21.140;2023-04-06T14:37:05;100185.86;;;5.67;58.08
64460;BME280;50828;53.756;21.140;2023-04-06T14:42:13;100183.57;;;5.69;58.33
64460;BME280;50828;53.756;21.140;2023-04-06T14:47:20;100191.41;;;5.70;58.27
64460;BME280;50828;53.756;21.140;2023-04-06T14:52:27;100193.65;;;5.72;58.33
64460;BME280;50828;53.756;21.140;2023-04-06T14:57:37;100198.23;;;5.70;58.33
64460;BME280;50828;53.756;21.140;2023-04-06T15:02:44;100191.77;;;5.70;58.27
64460;BME280;50828;53.756;21.140;2023-04-06T15:07:52;100198.08;;;5.69;58.48
64460;BME280;50828;53.756;21.140;2023-04-06T15:12:59;100196.02;;;5.67;58.27
64460;BME280;50828;53.756;21.140;2023-04-06T15:18:07;100190.08;;;5.67;58.23
64460;BME280;50828;53.756;21.140;2023-04-06T15:23:15;100182.42;;;5.65;58.36
64460;BME280;50828;53.756;21.140;2023-04-06T15:28:23;100173.00;;;5.55;58.40
64460;BME280;50828;53.756;21.140;2023-04-06T15:33:30;100183.45;;;5.56;58.67
64460;BME280;50828;53.756;21.140;2023-04-06T15:38:38;100168.95;;;5.48;58.72
64460;BME280;50828;53.756;21.140;2023-04-06T15:43:46;100167.95;;;5.44;58.84
64460;BME280;50828;53.756;21.140;2023-04-06T15:48:53;100166.11;;;5.40;59.03
64460;BME280;50828;53.756;21.140;2023-04-06T15:54:01;100176.34;;;5.35;59.19
64460;BME280;50828;53.756;21.140;2023-04-06T15:59:08;100180.77;;;5.31;59.08
64460;BME280;50828;53.756;21.140;2023-04-06T16:04:16;100179.10;;;5.26;59.33
64460;BME280;50828;53.756;21.140;2023-04-06T16:09:23;100185.27;;;5.23;59.46
64460;BME280;50828;53.756;21.140;2023-04-06T16:14:31;100187.09;;;5.18;59.57
64460;BME280;50828;53.756;21.140;2023-04-06T16:19:38;100188.57;;;5.13;59.71
64460;BME280;50828;53.756;21.140;2023-04-06T16:24:46;100190.95;;;5.07;59.58
64460;BME280;50828;53.756;21.140;2023-04-06T16:29:53;100181.83;;;5.00;59.89
64460;BME280;50828;53.756;21.140;2023-04-06T16:35:01;100183.11;;;4.95;59.95
64460;BME280;50828;53.756;21.140;2023-04-06T16:40:10;100186.83;;;4.91;60.00
64460;BME280;50828;53.756;21.140;2023-04-06T16:45:19;100191.29;;;4.86;60.45
64460;BME280;50828;53.756;21.140;2023-04-06T16:50:27;100198.51;;;4.82;60.53
64460;BME280;50828;53.756;21.140;2023-04-06T16:55:34;100202.96;;;4.76;60.38
64460;BME280;50828;53.756;21.140;2023-04-06T17:00:44;100211.76;;;4.71;60.87
64460;BME280;50828;53.756;21.140;2023-04-06T17:05:52;100210.56;;;4.68;60.95
64460;BME280;50828;53.756;21.140;2023-04-06T17:10:59;100216.88;;;4.66;61.02
64460;BME280;50828;53.756;21.140;2023-04-06T17:16:09;100211.71;;;4.63;61.06
64460;BME280;50828;53.756;21.140;2023-04-06T17:21:17;100208.09;;;4.59;61.44
64460;BME280;50828;53.756;21.140;2023-04-06T17:26:25;100209.69;;;4.57;61.53
64460;BME280;50828;53.756;21.140;2023-04-06T17:31:33;100220.54;;;4.54;61.68
64460;BME280;50828;53.756;21.140;2023-04-06T17:36:40;100215.67;;;4.52;61.82
64460;BME280;50828;53.756;21.140;2023-04-06T17:41:47;100220.58;;;4.51;61.97
64460;BME280;50828;53.756;21.140;2023-04-06T17:46:54;100216.23;;;4.51;62.01
64460;BME280;50828;53.756;21.140;2023-04-06T17:52:02;100210.67;;;4.48;62.04
64460;BME280;50828;53.756;21.140;2023-04-06T17:57:09;100213.64;;;4.49;62.31
64460;BME280;50828;53.756;21.140;2023-04-06T18:02:16;100211.02;;;4.48;62.11
64460;BME280;50828;53.756;21.140;2023-04-06T18:07:24;100209.99;;;4.47;62.37
64460;BME280;50828;53.756;21.140;2023-04-06T18:12:32;100203.72;;;4.47;62.57
64460;BME280;50828;53.756;21.140;2023-04-06T18:17:40;100205.66;;;4.45;62.67
64460;BME280;50828;53.756;21.140;2023-04-06T18:22:47;100218.39;;;4.45;62.59
64460;BME280;50828;53.756;21.140;2023-04-06T18:28:00;100222.94;;;4.44;62.68
64460;BME280;50828;53.756;21.140;2023-04-06T18:33:07;100227.84;;;4.43;62.71
64460;BME280;50828;53.756;21.140;2023-04-06T18:38:15;100235.01;;;4.41;62.76
64460;BME280;50828;53.756;21.140;2023-04-06T18:43:22;100230.13;;;4.41;63.08
64460;BME280;50828;53.756;21.140;2023-04-06T18:48:30;100227.33;;;4.41;63.09
64460;BME280;50828;53.756;21.140;2023-04-06T18:53:37;100218.65;;;4.38;63.22
64460;BME280;50828;53.756;21.140;2023-04-06T18:58:45;100225.95;;;4.40;63.30
64460;BME280;50828;53.756;21.140;2023-04-06T19:03:54;100222.27;;;4.41;63.18
64460;BME280;50828;53.756;21.140;2023-04-06T19:09:02;100228.38;;;4.41;63.44
64460;BME280;50828;53.756;21.140;2023-04-06T19:14:10;100224.71;;;4.41;63.53
64460;BME280;50828;53.756;21.140;2023-04-06T19:19:19;100221.05;;;4.42;63.61
64460;BME280;50828;53.756;21.140;2023-04-06T19:24:26;100219.66;;;4.42;63.66
64460;BME280;50828;53.756;21.140;2023-04-06T19:29:34;100218.70;;;4.47;63.72
64460;BME280;50828;53.756;21.140;2023-04-06T19:34:43;100208.23;;;4.49;63.70
64460;BME280;50828;53.756;21.140;2023-04-06T19:39:50;100204.70;;;4.51;63.65
64460;BME280;50828;53.756;21.140;2023-04-06T19:44:57;100204.51;;;4.53;63.86
64460;BME280;50828;53.756;21.140;2023-04-06T19:50:05;100199.43;;;4.53;63.93
64460;BME280;50828;53.756;21.140;2023-04-06T19:55:14;100200.28;;;4.56;63.86
64460;BME280;50828;53.756;21.140;2023-04-06T20:00:22;100189.45;;;4.57;64.00
64460;BME280;50828;53.756;21.140;2023-04-06T20:05:29;100191.36;;;4.57;64.10
64460;BME280;50828;53.756;21.140;2023-04-06T20:10:38;100189.77;;;4.58;64.13
64460;BME280;50828;53.756;21.140;2023-04-06T20:15:46;100189.94;;;4.59;64.26
64460;BME280;50828;53.756;21.140;2023-04-06T20:20:53;100184.88;;;4.59;64.21
64460;BME280;50828;53.756;21.140;2023-04-06T20:26:01;100181.73;;;4.59;64.43
64460;BME280;50828;53.756;21.140;2023-04-06T20:31:10;100177.40;;;4.58;64.61
64460;BME280;50828;53.756;21.140;2023-04-06T20:36:18;100173.05;;;4.57;64.62
64460;BME280;50828;53.756;21.140;2023-04-06T20:41:26;100165.35;;;4.59;64.64
64460;BME280;50828;53.756;21.140;2023-04-06T20:46:33;100164.14;;;4.59;64.81
64460;BME280;50828;53.756;21.140;2023-04-06T20:51:41;100164.31;;;4.58;64.85
64460;BME280;50828;53.756;21.140;2023-04-06T20:56:50;100160.80;;;4.59;64.97
64460;BME280;50828;53.756;21.140;2023-04-06T21:01:57;100157.47;;;4.60;65.08
64460;BME280;50828;53.756;21.140;2023-04-06T21:07:05;100150.87;;;4.59;65.02
64460;BME280;50828;53.756;21.140;2023-04-06T21:12:13;100142.19;;;4.57;65.13
64460;BME280;50828;53.756;21.140;2023-04-06T21:17:20;100138.36;;;4.56;65.36
64460;BME280;50828;53.756;21.140;2023-04-06T21:22:27;100140.58;;;4.59;65.51
64460;BME280;50828;53.756;21.140;2023-04-06T21:27:35;100138.48;;;4.60;65.58
64460;BME280;50828;53.756;21.140;2023-04-06T21:32:42;100136.38;;;4.60;65.54
64460;BME280;50828;53.756;21.140;2023-04-06T21:37:49;100132.16;;;4.63;65.82
64460;BME280;50828;53.756;21.140;2023-04-06T21:42:57;100127.41;;;4.64;65.60
64460;BME280;50828;53.756;21.140;2023-04-06T21:48:05;100120.45;;;4.63;65.76
64460;BME280;50828;53.756;21.140;2023-04-06T21:53:12;100117.28;;;4.66;65.87
64460;BME280;50828;53.756;21.140;2023-04-06T21:58:19;100106.12;;;4.65;65.96
64460;BME280;50828;53.756;21.140;2023-04-06T22:03:27;100102.58;;;4.69;66.03
64460;BME280;50828;53.756;21.140;2023-04-06T22:08:35;100101.16;;;4.70;65.95
64460;BME280;50828;53.756;21.140;2023-04-06T22:13:43;100098.68;;;4.72;66.10
64460;BME280;50828;53.756;21.140;2023-04-06T22:18:50;100096.36;;;4.75;66.27
64460;BME280;50828;53.756;21.140;2023-04-06T22:23:58;100088.64;;;4.77;66.30
64460;BME280;50828;53.756;21.140;2023-04-06T22:29:05;100081.29;;;4.79;66.29
64460;BME280;50828;53.756;21.140;2023-04-06T22:34:12;100078.27;;;4.82;66.40
64460;BME280;50828;53.756;21.140;2023-04-06T22:39:20;100072.99;;;4.84;66.51
64460;BME280;50828;53.756;21.140;2023-04-06T22:44:27;100072.42;;;4.87;66.66
64460;BME280;50828;53.756;21.140;2023-04-06T22:49:34;100063.69;;;4.87;66.83
64460;BME280;50828;53.756;21.140;2023-04-06T22:54:42;100062.53;;;4.94;66.61
64460;BME280;50828;53.756;21.140;2023-04-06T22:59:49;100060.21;;;4.98;66.82
64460;BME280;50828;53.756;21.140;2023-04-06T23:04:56;100052.80;;;5.01;66.96
64460;BME280;50828;53.756;21.140;2023-04-06T23:10:04;100051.34;;;5.05;66.75
64460;BME280;50828;53.756;21.140;2023-04-06T23:15:12;100050.77;;;5.07;66.85
64460;BME280;50828;53.756;21.140;2023-04-06T23:20:20;100049.33;;;5.10;66.87
64460;BME280;50828;53.756;21.140;2023-04-06T23:25:28;100051.52;;;5.14;66.95
64460;BME280;50828;53.756;21.140;2023-04-06T23:30:35;100047.62;;;5.17;66.80
64460;BME280;50828;53.756;21.140;2023-04-06T23:35:42;100044.59;;;5.21;67.05
64460;BME280;50828;53.756;21.140;2023-04-06T23:40:49;100043.65;;;5.24;67.01
64460;BME280;50828;53.756;21.140;2023-04-06T23:45:57;100037.30;;;5.27;67.31
64460;BME280;50828;53.756;21.140;2023-04-06T23:51:04;100030.27;;;5.30;67.47
64460;BME280;50828;53.756;21.140;2023-04-06T23:56:11;100028.49;;;5.31;67.24
